<?xml version="1.0" encoding="UTF-8" standalone="no" ?>
<gpx xmlns="http://www.topografix.com/GPX/1/1" xmlns:xsi="http://www.w3.org/2001/XMLSchema-instance" xsi:schemaLocation="http://www.topografix.com/GPX/1/1 http://www.topografix.com/GPX/1/1/gpx.xsd" version="1.1" creator="VisuGPX - https://www.visugpx.com">
  <metadata>
    <name>LesSables_RocStJeanLaChaume_19.3km</name>
    <desc><![CDATA[WE le 21/01/2016. 19.3km + LaChaume-LacTanchet par le port et Ile Penotte 20.4km]]></desc>
  </metadata>
  <trk>
    <name><![CDATA[LES SABLES-les Phares et dunes Aubraie variante-17371649]]></name>
    <extensions>
      <line xmlns="http://www.topografix.com/GPX/gpx_style/0/2">
        <color>00FF00</color>
        <width>4</width>
      </line>
    </extensions>
    <trkseg>
      <trkpt lat="46.50575" lon="-1.79761">
        <ele>2</ele>
        <time>2024-02-26T16:18:47Z</time>
      </trkpt>
      <trkpt lat="46.50547" lon="-1.79787">
        <ele>2</ele>
        <time>2024-02-26T16:19:31Z</time>
      </trkpt>
      <trkpt lat="46.50541" lon="-1.79809">
        <ele>2</ele>
        <time>2024-02-26T16:19:53Z</time>
      </trkpt>
      <trkpt lat="46.50529" lon="-1.79872">
        <ele>2</ele>
        <time>2024-02-26T16:20:53Z</time>
      </trkpt>
      <trkpt lat="46.50524" lon="-1.79917">
        <ele>2</ele>
        <time>2024-02-26T16:21:35Z</time>
      </trkpt>
      <trkpt lat="46.50514" lon="-1.79961">
        <ele>2</ele>
        <time>2024-02-26T16:22:18Z</time>
      </trkpt>
      <trkpt lat="46.50507" lon="-1.80028">
        <ele>3</ele>
        <time>2024-02-26T16:23:20Z</time>
      </trkpt>
      <trkpt lat="46.50503" lon="-1.80029">
        <ele>3</ele>
        <time>2024-02-26T16:23:25Z</time>
      </trkpt>
      <trkpt lat="46.50457" lon="-1.80013">
        <ele>3</ele>
        <time>2024-02-26T16:24:28Z</time>
      </trkpt>
      <trkpt lat="46.50453" lon="-1.80014">
        <ele>3</ele>
        <time>2024-02-26T16:24:34Z</time>
      </trkpt>
      <trkpt lat="46.50451" lon="-1.80018">
        <ele>3</ele>
        <time>2024-02-26T16:24:38Z</time>
      </trkpt>
      <trkpt lat="46.5044" lon="-1.80021">
        <ele>3</ele>
        <time>2024-02-26T16:24:53Z</time>
      </trkpt>
      <trkpt lat="46.50407" lon="-1.80144">
        <ele>6</ele>
        <time>2024-02-26T16:26:54Z</time>
      </trkpt>
      <trkpt lat="46.50401" lon="-1.80149">
        <ele>6</ele>
        <time>2024-02-26T16:27:04Z</time>
      </trkpt>
      <trkpt lat="46.50378" lon="-1.80146">
        <ele>6</ele>
        <time>2024-02-26T16:27:35Z</time>
      </trkpt>
      <trkpt lat="46.50367" lon="-1.80166">
        <ele>6</ele>
        <time>2024-02-26T16:27:58Z</time>
      </trkpt>
      <trkpt lat="46.50365" lon="-1.80175">
        <ele>7</ele>
        <time>2024-02-26T16:28:07Z</time>
      </trkpt>
      <trkpt lat="46.50362" lon="-1.80259">
        <ele>9</ele>
        <time>2024-02-26T16:29:24Z</time>
      </trkpt>
      <trkpt lat="46.50368" lon="-1.80286">
        <ele>9</ele>
        <time>2024-02-26T16:29:50Z</time>
      </trkpt>
      <trkpt lat="46.50366" lon="-1.80296">
        <ele>9</ele>
        <time>2024-02-26T16:30:00Z</time>
      </trkpt>
      <trkpt lat="46.50342" lon="-1.80324">
        <ele>10</ele>
        <time>2024-02-26T16:30:41Z</time>
      </trkpt>
      <trkpt lat="46.5033" lon="-1.80343">
        <ele>10</ele>
        <time>2024-02-26T16:31:04Z</time>
      </trkpt>
      <trkpt lat="46.50295" lon="-1.80422">
        <ele>9</ele>
        <time>2024-02-26T16:32:31Z</time>
      </trkpt>
      <trkpt lat="46.50297" lon="-1.80438">
        <ele>10</ele>
        <time>2024-02-26T16:32:46Z</time>
      </trkpt>
      <trkpt lat="46.50305" lon="-1.80452">
        <ele>9</ele>
        <time>2024-02-26T16:33:02Z</time>
      </trkpt>
      <trkpt lat="46.50317" lon="-1.80461">
        <ele>9</ele>
        <time>2024-02-26T16:33:20Z</time>
      </trkpt>
      <trkpt lat="46.50334" lon="-1.80469">
        <ele>9</ele>
        <time>2024-02-26T16:33:44Z</time>
      </trkpt>
      <trkpt lat="46.50341" lon="-1.80477">
        <ele>9</ele>
        <time>2024-02-26T16:33:56Z</time>
      </trkpt>
      <trkpt lat="46.50334" lon="-1.80496">
        <ele>9</ele>
        <time>2024-02-26T16:34:16Z</time>
      </trkpt>
      <trkpt lat="46.50324" lon="-1.80538">
        <ele>10</ele>
        <time>2024-02-26T16:34:57Z</time>
      </trkpt>
      <trkpt lat="46.50299" lon="-1.80583">
        <ele>12</ele>
        <time>2024-02-26T16:35:50Z</time>
      </trkpt>
      <trkpt lat="46.50302" lon="-1.80598">
        <ele>12</ele>
        <time>2024-02-26T16:36:04Z</time>
      </trkpt>
      <trkpt lat="46.5031" lon="-1.80602">
        <ele>12</ele>
        <time>2024-02-26T16:36:15Z</time>
      </trkpt>
      <trkpt lat="46.50339" lon="-1.80602">
        <ele>12</ele>
        <time>2024-02-26T16:36:54Z</time>
      </trkpt>
      <trkpt lat="46.50365" lon="-1.80605">
        <ele>13</ele>
        <time>2024-02-26T16:37:29Z</time>
      </trkpt>
      <trkpt lat="46.50375" lon="-1.80609">
        <ele>13</ele>
        <time>2024-02-26T16:37:43Z</time>
      </trkpt>
      <trkpt lat="46.50393" lon="-1.80606">
        <ele>14</ele>
        <time>2024-02-26T16:38:07Z</time>
      </trkpt>
      <trkpt lat="46.50413" lon="-1.80614">
        <ele>14</ele>
        <time>2024-02-26T16:38:35Z</time>
      </trkpt>
      <trkpt lat="46.5043" lon="-1.80629">
        <ele>14</ele>
        <time>2024-02-26T16:39:01Z</time>
      </trkpt>
      <trkpt lat="46.50442" lon="-1.80635">
        <ele>13</ele>
        <time>2024-02-26T16:39:18Z</time>
      </trkpt>
      <trkpt lat="46.50462" lon="-1.8064">
        <ele>13</ele>
        <time>2024-02-26T16:39:45Z</time>
      </trkpt>
      <trkpt lat="46.50509" lon="-1.80659">
        <ele>13</ele>
        <time>2024-02-26T16:40:50Z</time>
      </trkpt>
      <trkpt lat="46.50534" lon="-1.80665">
        <ele>13</ele>
        <time>2024-02-26T16:41:24Z</time>
      </trkpt>
      <trkpt lat="46.50544" lon="-1.80664">
        <ele>12</ele>
        <time>2024-02-26T16:41:38Z</time>
      </trkpt>
      <trkpt lat="46.50569" lon="-1.80672">
        <ele>12</ele>
        <time>2024-02-26T16:42:12Z</time>
      </trkpt>
      <trkpt lat="46.50598" lon="-1.80674">
        <ele>12</ele>
        <time>2024-02-26T16:42:50Z</time>
      </trkpt>
      <trkpt lat="46.5062" lon="-1.80686">
        <ele>12</ele>
        <time>2024-02-26T16:43:22Z</time>
      </trkpt>
      <trkpt lat="46.50634" lon="-1.80689">
        <ele>12</ele>
        <time>2024-02-26T16:43:41Z</time>
      </trkpt>
      <trkpt lat="46.50659" lon="-1.80709">
        <ele>12</ele>
        <time>2024-02-26T16:44:19Z</time>
      </trkpt>
      <trkpt lat="46.50698" lon="-1.80755">
        <ele>13</ele>
        <time>2024-02-26T16:45:26Z</time>
      </trkpt>
      <trkpt lat="46.50723" lon="-1.80779">
        <ele>12</ele>
        <time>2024-02-26T16:46:06Z</time>
      </trkpt>
      <trkpt lat="46.50735" lon="-1.80787">
        <ele>12</ele>
        <time>2024-02-26T16:46:23Z</time>
      </trkpt>
      <trkpt lat="46.50757" lon="-1.80791">
        <ele>12</ele>
        <time>2024-02-26T16:46:53Z</time>
      </trkpt>
      <trkpt lat="46.50767" lon="-1.80788">
        <ele>12</ele>
        <time>2024-02-26T16:47:07Z</time>
      </trkpt>
      <trkpt lat="46.50769" lon="-1.80802">
        <ele>12</ele>
        <time>2024-02-26T16:47:20Z</time>
      </trkpt>
      <trkpt lat="46.5076" lon="-1.80835">
        <ele>12</ele>
        <time>2024-02-26T16:47:52Z</time>
      </trkpt>
      <trkpt lat="46.50763" lon="-1.80846">
        <ele>12</ele>
        <time>2024-02-26T16:48:03Z</time>
      </trkpt>
      <trkpt lat="46.50774" lon="-1.80867">
        <ele>12</ele>
        <time>2024-02-26T16:48:27Z</time>
      </trkpt>
      <trkpt lat="46.50805" lon="-1.80877">
        <ele>12.6</ele>
        <extensions>
          <visugpx:TrkExtension xmlns:visugpx="https://www.visugpx.com/editgpx/">
            <visugpx:node>1</visugpx:node>
            </visugpx:TrkExtension>
        </extensions>
      </trkpt>
      <trkpt lat="46.50819" lon="-1.80882">
        <ele>12</ele>
        <time>2024-02-26T16:49:29Z</time>
      </trkpt>
      <trkpt lat="46.5086" lon="-1.80902">
        <ele>13.5</ele>
        <extensions>
          <visugpx:TrkExtension xmlns:visugpx="https://www.visugpx.com/editgpx/">
            <visugpx:node>2</visugpx:node>
            </visugpx:TrkExtension>
        </extensions>
      </trkpt>
      <trkpt lat="46.50872" lon="-1.80907">
        <ele>12</ele>
        <time>2024-02-26T16:50:43Z</time>
      </trkpt>
      <trkpt lat="46.50908" lon="-1.80914">
        <ele>13</ele>
        <time>2024-02-26T16:51:32Z</time>
      </trkpt>
      <trkpt lat="46.50988" lon="-1.8094">
        <ele>13</ele>
        <time>2024-02-26T16:53:21Z</time>
      </trkpt>
      <trkpt lat="46.51044" lon="-1.80953">
        <ele>13</ele>
        <time>2024-02-26T16:54:37Z</time>
      </trkpt>
      <trkpt lat="46.51087" lon="-1.80982">
        <ele>15</ele>
        <time>2024-02-26T16:55:40Z</time>
      </trkpt>
      <trkpt lat="46.51117" lon="-1.80991">
        <ele>16</ele>
        <time>2024-02-26T16:56:21Z</time>
      </trkpt>
      <trkpt lat="46.51127" lon="-1.80992">
        <ele>16</ele>
        <time>2024-02-26T16:56:34Z</time>
      </trkpt>
      <trkpt lat="46.51162" lon="-1.80988">
        <ele>16</ele>
        <time>2024-02-26T16:57:21Z</time>
      </trkpt>
      <trkpt lat="46.51179" lon="-1.80982">
        <ele>17</ele>
        <time>2024-02-26T16:57:45Z</time>
      </trkpt>
      <trkpt lat="46.51188" lon="-1.80968">
        <ele>17</ele>
        <time>2024-02-26T16:58:02Z</time>
      </trkpt>
      <trkpt lat="46.51195" lon="-1.80968">
        <ele>17</ele>
        <time>2024-02-26T16:58:12Z</time>
      </trkpt>
      <trkpt lat="46.51217" lon="-1.80949">
        <ele>18</ele>
        <time>2024-02-26T16:58:46Z</time>
      </trkpt>
      <trkpt lat="46.5123" lon="-1.80942">
        <ele>18</ele>
        <time>2024-02-26T16:59:04Z</time>
      </trkpt>
      <trkpt lat="46.51281" lon="-1.80937">
        <ele>19</ele>
        <time>2024-02-26T17:00:12Z</time>
      </trkpt>
      <trkpt lat="46.51305" lon="-1.80941">
        <ele>19</ele>
        <time>2024-02-26T17:00:45Z</time>
      </trkpt>
      <trkpt lat="46.51326" lon="-1.80958">
        <ele>19</ele>
        <time>2024-02-26T17:01:17Z</time>
      </trkpt>
      <trkpt lat="46.51352" lon="-1.80964">
        <ele>19</ele>
        <time>2024-02-26T17:01:52Z</time>
      </trkpt>
      <trkpt lat="46.51364" lon="-1.8097">
        <ele>19</ele>
        <time>2024-02-26T17:02:09Z</time>
      </trkpt>
      <trkpt lat="46.5141" lon="-1.81005">
        <ele>18</ele>
        <time>2024-02-26T17:03:18Z</time>
      </trkpt>
      <trkpt lat="46.51426" lon="-1.81009">
        <ele>18</ele>
        <time>2024-02-26T17:03:40Z</time>
      </trkpt>
      <trkpt lat="46.51439" lon="-1.81008">
        <ele>19</ele>
        <time>2024-02-26T17:03:57Z</time>
      </trkpt>
      <trkpt lat="46.5145" lon="-1.81012">
        <ele>19</ele>
        <time>2024-02-26T17:04:12Z</time>
      </trkpt>
      <trkpt lat="46.51455" lon="-1.81011">
        <ele>19</ele>
        <time>2024-02-26T17:04:19Z</time>
      </trkpt>
      <trkpt lat="46.51483" lon="-1.81018">
        <ele>21</ele>
        <time>2024-02-26T17:04:57Z</time>
      </trkpt>
      <trkpt lat="46.51484" lon="-1.8102">
        <ele>21</ele>
        <time>2024-02-26T17:04:59Z</time>
      </trkpt>
      <trkpt lat="46.515" lon="-1.81013">
        <ele>21</ele>
        <time>2024-02-26T17:05:22Z</time>
      </trkpt>
      <trkpt lat="46.51508" lon="-1.80996">
        <ele>20</ele>
        <time>2024-02-26T17:05:40Z</time>
      </trkpt>
      <trkpt lat="46.51522" lon="-1.80986">
        <ele>19</ele>
        <time>2024-02-26T17:06:01Z</time>
      </trkpt>
      <trkpt lat="46.51574" lon="-1.81">
        <ele>17</ele>
        <time>2024-02-26T17:07:12Z</time>
      </trkpt>
      <trkpt lat="46.51591" lon="-1.80997">
        <ele>16</ele>
        <time>2024-02-26T17:07:35Z</time>
      </trkpt>
      <trkpt lat="46.51612" lon="-1.81002">
        <ele>17</ele>
        <time>2024-02-26T17:08:03Z</time>
      </trkpt>
      <trkpt lat="46.51629" lon="-1.81001">
        <ele>17</ele>
        <time>2024-02-26T17:08:26Z</time>
      </trkpt>
      <trkpt lat="46.51646" lon="-1.80981">
        <ele>15</ele>
        <time>2024-02-26T17:08:55Z</time>
      </trkpt>
      <trkpt lat="46.51665" lon="-1.80975">
        <ele>14</ele>
        <time>2024-02-26T17:09:21Z</time>
      </trkpt>
      <trkpt lat="46.51685" lon="-1.80975">
        <ele>15</ele>
        <time>2024-02-26T17:09:48Z</time>
      </trkpt>
      <trkpt lat="46.51702" lon="-1.80971">
        <ele>15</ele>
        <time>2024-02-26T17:10:11Z</time>
      </trkpt>
      <trkpt lat="46.51737" lon="-1.80954">
        <ele>15</ele>
        <time>2024-02-26T17:11:00Z</time>
      </trkpt>
      <trkpt lat="46.51792" lon="-1.809">
        <ele>12</ele>
        <time>2024-02-26T17:12:28Z</time>
      </trkpt>
      <trkpt lat="46.51812" lon="-1.80902">
        <ele>13</ele>
        <time>2024-02-26T17:12:55Z</time>
      </trkpt>
      <trkpt lat="46.51823" lon="-1.80899">
        <ele>13</ele>
        <time>2024-02-26T17:13:10Z</time>
      </trkpt>
      <trkpt lat="46.51879" lon="-1.80912">
        <ele>17</ele>
        <time>2024-02-26T17:14:26Z</time>
      </trkpt>
      <trkpt lat="46.51893" lon="-1.80906">
        <ele>18</ele>
        <time>2024-02-26T17:14:45Z</time>
      </trkpt>
      <trkpt lat="46.51915" lon="-1.80905">
        <ele>19</ele>
        <time>2024-02-26T17:15:15Z</time>
      </trkpt>
      <trkpt lat="46.51927" lon="-1.80879">
        <ele>16</ele>
        <time>2024-02-26T17:15:43Z</time>
      </trkpt>
      <trkpt lat="46.51934" lon="-1.80854">
        <ele>14</ele>
        <time>2024-02-26T17:16:08Z</time>
      </trkpt>
      <trkpt lat="46.51956" lon="-1.80832">
        <ele>12</ele>
        <time>2024-02-26T17:16:44Z</time>
      </trkpt>
      <trkpt lat="46.51976" lon="-1.8082">
        <ele>12</ele>
        <time>2024-02-26T17:17:13Z</time>
      </trkpt>
      <trkpt lat="46.52024" lon="-1.80812">
        <ele>12</ele>
        <time>2024-02-26T17:18:17Z</time>
      </trkpt>
      <trkpt lat="46.52045" lon="-1.80867">
        <ele>13</ele>
        <time>2024-02-26T17:19:15Z</time>
      </trkpt>
      <trkpt lat="46.52081" lon="-1.81018">
        <ele>19</ele>
        <time>2024-02-26T17:21:42Z</time>
      </trkpt>
      <trkpt lat="46.52092" lon="-1.81079">
        <ele>20</ele>
        <time>2024-02-26T17:22:40Z</time>
      </trkpt>
      <trkpt lat="46.52104" lon="-1.81124">
        <ele>19</ele>
        <time>2024-02-26T17:23:24Z</time>
      </trkpt>
      <trkpt lat="46.52116" lon="-1.81242">
        <ele>19</ele>
        <time>2024-02-26T17:25:13Z</time>
      </trkpt>
      <trkpt lat="46.52127" lon="-1.81271">
        <ele>18</ele>
        <time>2024-02-26T17:25:44Z</time>
      </trkpt>
      <trkpt lat="46.52145" lon="-1.81281">
        <ele>18</ele>
        <time>2024-02-26T17:26:09Z</time>
      </trkpt>
      <trkpt lat="46.52148" lon="-1.813">
        <ele>18</ele>
        <time>2024-02-26T17:26:27Z</time>
      </trkpt>
      <trkpt lat="46.52154" lon="-1.81333">
        <ele>17</ele>
        <time>2024-02-26T17:26:59Z</time>
      </trkpt>
      <trkpt lat="46.52155" lon="-1.81349">
        <ele>17</ele>
        <time>2024-02-26T17:27:13Z</time>
      </trkpt>
      <trkpt lat="46.52157" lon="-1.81375">
        <ele>17</ele>
        <time>2024-02-26T17:27:38Z</time>
      </trkpt>
      <trkpt lat="46.52173" lon="-1.81406">
        <ele>17</ele>
        <time>2024-02-26T17:28:13Z</time>
      </trkpt>
      <trkpt lat="46.522" lon="-1.81473">
        <ele>17</ele>
        <time>2024-02-26T17:29:24Z</time>
      </trkpt>
      <trkpt lat="46.52229" lon="-1.81599">
        <ele>16</ele>
        <time>2024-02-26T17:31:26Z</time>
      </trkpt>
      <trkpt lat="46.52165" lon="-1.8175">
        <ele>14</ele>
        <time>2024-02-26T17:34:09Z</time>
      </trkpt>
      <trkpt lat="46.5215" lon="-1.81813">
        <ele>12</ele>
        <time>2024-02-26T17:35:10Z</time>
      </trkpt>
      <trkpt lat="46.52139" lon="-1.81838">
        <ele>12</ele>
        <time>2024-02-26T17:35:38Z</time>
      </trkpt>
      <trkpt lat="46.52118" lon="-1.81866">
        <ele>10</ele>
        <time>2024-02-26T17:36:16Z</time>
      </trkpt>
      <trkpt lat="46.52116" lon="-1.81893">
        <ele>10</ele>
        <time>2024-02-26T17:36:41Z</time>
      </trkpt>
      <trkpt lat="46.52118" lon="-1.8192">
        <ele>9</ele>
        <time>2024-02-26T17:37:06Z</time>
      </trkpt>
      <trkpt lat="46.52102" lon="-1.81954">
        <ele>8</ele>
        <time>2024-02-26T17:37:43Z</time>
      </trkpt>
      <trkpt lat="46.52083" lon="-1.81948">
        <ele>8</ele>
        <time>2024-02-26T17:38:09Z</time>
      </trkpt>
      <trkpt lat="46.5207" lon="-1.81941">
        <ele>8</ele>
        <time>2024-02-26T17:38:28Z</time>
      </trkpt>
      <trkpt lat="46.52034" lon="-1.81933">
        <ele>7</ele>
        <time>2024-02-26T17:39:16Z</time>
      </trkpt>
      <trkpt lat="46.52003" lon="-1.81909">
        <ele>6</ele>
        <time>2024-02-26T17:40:03Z</time>
      </trkpt>
      <trkpt lat="46.51964" lon="-1.81887">
        <ele>7</ele>
        <time>2024-02-26T17:40:59Z</time>
      </trkpt>
      <trkpt lat="46.51922" lon="-1.81868">
        <ele>7</ele>
        <time>2024-02-26T17:41:58Z</time>
      </trkpt>
      <trkpt lat="46.5191" lon="-1.81865">
        <ele>7</ele>
        <time>2024-02-26T17:42:14Z</time>
      </trkpt>
      <trkpt lat="46.51861" lon="-1.8184">
        <ele>6</ele>
        <time>2024-02-26T17:43:23Z</time>
      </trkpt>
      <trkpt lat="46.51835" lon="-1.81836">
        <ele>5</ele>
        <time>2024-02-26T17:43:58Z</time>
      </trkpt>
      <trkpt lat="46.51814" lon="-1.81824">
        <ele>5</ele>
        <time>2024-02-26T17:44:28Z</time>
      </trkpt>
      <trkpt lat="46.51795" lon="-1.81827">
        <ele>5</ele>
        <time>2024-02-26T17:44:54Z</time>
      </trkpt>
      <trkpt lat="46.5177" lon="-1.81826">
        <ele>5</ele>
        <time>2024-02-26T17:45:27Z</time>
      </trkpt>
      <trkpt lat="46.51741" lon="-1.81834">
        <ele>5</ele>
        <time>2024-02-26T17:46:07Z</time>
      </trkpt>
      <trkpt lat="46.51709" lon="-1.81831">
        <ele>5</ele>
        <time>2024-02-26T17:46:49Z</time>
      </trkpt>
      <trkpt lat="46.51667" lon="-1.81852">
        <ele>4</ele>
        <time>2024-02-26T17:47:49Z</time>
      </trkpt>
      <trkpt lat="46.51653" lon="-1.81855">
        <ele>4</ele>
        <time>2024-02-26T17:48:08Z</time>
      </trkpt>
      <trkpt lat="46.51627" lon="-1.81855">
        <ele>4</ele>
        <time>2024-02-26T17:48:42Z</time>
      </trkpt>
      <trkpt lat="46.51574" lon="-1.81843">
        <ele>5</ele>
        <time>2024-02-26T17:49:54Z</time>
      </trkpt>
      <trkpt lat="46.51497" lon="-1.81838">
        <ele>6</ele>
        <time>2024-02-26T17:51:37Z</time>
      </trkpt>
      <trkpt lat="46.51464" lon="-1.81829">
        <ele>6</ele>
        <time>2024-02-26T17:52:22Z</time>
      </trkpt>
      <trkpt lat="46.51452" lon="-1.81829">
        <ele>6</ele>
        <time>2024-02-26T17:52:38Z</time>
      </trkpt>
      <trkpt lat="46.51436" lon="-1.81834">
        <ele>5</ele>
        <time>2024-02-26T17:52:59Z</time>
      </trkpt>
      <trkpt lat="46.5138" lon="-1.81837">
        <ele>5</ele>
        <time>2024-02-26T17:54:14Z</time>
      </trkpt>
      <trkpt lat="46.5136" lon="-1.81835">
        <ele>6</ele>
        <time>2024-02-26T17:54:41Z</time>
      </trkpt>
      <trkpt lat="46.51342" lon="-1.81828">
        <ele>6</ele>
        <time>2024-02-26T17:55:06Z</time>
      </trkpt>
      <trkpt lat="46.5134" lon="-1.81832">
        <ele>6</ele>
        <time>2024-02-26T17:55:10Z</time>
      </trkpt>
      <trkpt lat="46.51316" lon="-1.81803">
        <ele>7</ele>
        <time>2024-02-26T17:55:52Z</time>
      </trkpt>
      <trkpt lat="46.51311" lon="-1.81791">
        <ele>8</ele>
        <time>2024-02-26T17:56:05Z</time>
      </trkpt>
      <trkpt lat="46.51297" lon="-1.81772">
        <ele>9</ele>
        <time>2024-02-26T17:56:30Z</time>
      </trkpt>
      <trkpt lat="46.51284" lon="-1.81761">
        <ele>9</ele>
        <time>2024-02-26T17:56:51Z</time>
      </trkpt>
      <trkpt lat="46.51249" lon="-1.81748">
        <ele>10</ele>
        <time>2024-02-26T17:57:39Z</time>
      </trkpt>
      <trkpt lat="46.51165" lon="-1.81738">
        <ele>9</ele>
        <time>2024-02-26T17:59:31Z</time>
      </trkpt>
      <trkpt lat="46.5115" lon="-1.81746">
        <ele>8</ele>
        <time>2024-02-26T17:59:53Z</time>
      </trkpt>
      <trkpt lat="46.51108" lon="-1.81785">
        <ele>6</ele>
        <time>2024-02-26T18:00:59Z</time>
      </trkpt>
      <trkpt lat="46.51073" lon="-1.81822">
        <ele>3</ele>
        <time>2024-02-26T18:01:57Z</time>
      </trkpt>
      <trkpt lat="46.51054" lon="-1.81837">
        <ele>3</ele>
        <time>2024-02-26T18:02:26Z</time>
      </trkpt>
      <trkpt lat="46.51038" lon="-1.81864">
        <ele>2</ele>
        <time>2024-02-26T18:02:58Z</time>
      </trkpt>
      <trkpt lat="46.51017" lon="-1.81883">
        <ele>2</ele>
        <time>2024-02-26T18:03:31Z</time>
      </trkpt>
      <trkpt lat="46.51002" lon="-1.81882">
        <ele>2</ele>
        <time>2024-02-26T18:03:51Z</time>
      </trkpt>
      <trkpt lat="46.50995" lon="-1.81877">
        <ele>2</ele>
        <time>2024-02-26T18:04:02Z</time>
      </trkpt>
      <trkpt lat="46.50983" lon="-1.81858">
        <ele>3</ele>
        <time>2024-02-26T18:04:26Z</time>
      </trkpt>
      <trkpt lat="46.50982" lon="-1.81836">
        <ele>3</ele>
        <time>2024-02-26T18:04:46Z</time>
      </trkpt>
      <trkpt lat="46.50976" lon="-1.81825">
        <ele>4</ele>
        <time>2024-02-26T18:04:59Z</time>
      </trkpt>
      <trkpt lat="46.5093" lon="-1.81795">
        <ele>3</ele>
        <time>2024-02-26T18:06:06Z</time>
      </trkpt>
      <trkpt lat="46.50902" lon="-1.81784">
        <ele>3</ele>
        <time>2024-02-26T18:06:45Z</time>
      </trkpt>
      <trkpt lat="46.50888" lon="-1.81775">
        <ele>3</ele>
        <time>2024-02-26T18:07:05Z</time>
      </trkpt>
      <trkpt lat="46.50834" lon="-1.8173">
        <ele>3</ele>
        <time>2024-02-26T18:08:28Z</time>
      </trkpt>
      <trkpt lat="46.50811" lon="-1.8172">
        <ele>3</ele>
        <time>2024-02-26T18:09:00Z</time>
      </trkpt>
      <trkpt lat="46.50783" lon="-1.81712">
        <ele>2</ele>
        <time>2024-02-26T18:09:38Z</time>
      </trkpt>
      <trkpt lat="46.50722" lon="-1.81702">
        <ele>2</ele>
        <time>2024-02-26T18:11:00Z</time>
      </trkpt>
      <trkpt lat="46.50653" lon="-1.81676">
        <ele>2</ele>
        <time>2024-02-26T18:12:35Z</time>
      </trkpt>
      <trkpt lat="46.50624" lon="-1.8167">
        <ele>2</ele>
        <time>2024-02-26T18:13:14Z</time>
      </trkpt>
      <trkpt lat="46.50605" lon="-1.81672">
        <ele>2</ele>
        <time>2024-02-26T18:13:40Z</time>
      </trkpt>
      <trkpt lat="46.50585" lon="-1.81664">
        <ele>2</ele>
        <time>2024-02-26T18:14:08Z</time>
      </trkpt>
      <trkpt lat="46.5057" lon="-1.81641">
        <ele>3</ele>
        <time>2024-02-26T18:14:37Z</time>
      </trkpt>
      <trkpt lat="46.5055" lon="-1.8162">
        <ele>4</ele>
        <time>2024-02-26T18:15:10Z</time>
      </trkpt>
      <trkpt lat="46.50531" lon="-1.81593">
        <ele>5</ele>
        <time>2024-02-26T18:15:45Z</time>
      </trkpt>
      <trkpt lat="46.50511" lon="-1.81581">
        <ele>5</ele>
        <time>2024-02-26T18:16:14Z</time>
      </trkpt>
      <trkpt lat="46.50497" lon="-1.8158">
        <ele>5</ele>
        <time>2024-02-26T18:16:33Z</time>
      </trkpt>
      <trkpt lat="46.50461" lon="-1.81564">
        <ele>4</ele>
        <time>2024-02-26T18:17:23Z</time>
      </trkpt>
      <trkpt lat="46.50449" lon="-1.81552">
        <ele>4</ele>
        <time>2024-02-26T18:17:42Z</time>
      </trkpt>
      <trkpt lat="46.50435" lon="-1.81543">
        <ele>4</ele>
        <time>2024-02-26T18:18:03Z</time>
      </trkpt>
      <trkpt lat="46.50424" lon="-1.81531">
        <ele>4</ele>
        <time>2024-02-26T18:18:21Z</time>
      </trkpt>
      <trkpt lat="46.50403" lon="-1.81499">
        <ele>5</ele>
        <time>2024-02-26T18:19:02Z</time>
      </trkpt>
      <trkpt lat="46.5038" lon="-1.81443">
        <ele>6</ele>
        <time>2024-02-26T18:20:02Z</time>
      </trkpt>
      <trkpt lat="46.50373" lon="-1.81432">
        <ele>6</ele>
        <time>2024-02-26T18:20:15Z</time>
      </trkpt>
      <trkpt lat="46.50364" lon="-1.81426">
        <ele>6</ele>
        <time>2024-02-26T18:20:29Z</time>
      </trkpt>
      <trkpt lat="46.50365" lon="-1.81421">
        <ele>6</ele>
        <time>2024-02-26T18:20:33Z</time>
      </trkpt>
      <trkpt lat="46.50357" lon="-1.81419">
        <ele>6</ele>
        <time>2024-02-26T18:20:44Z</time>
      </trkpt>
      <trkpt lat="46.50348" lon="-1.8143">
        <ele>6</ele>
        <time>2024-02-26T18:21:00Z</time>
      </trkpt>
      <trkpt lat="46.50353" lon="-1.81423">
        <ele>6</ele>
        <time>2024-02-26T18:21:09Z</time>
      </trkpt>
      <trkpt lat="46.50348" lon="-1.81427">
        <ele>6</ele>
        <time>2024-02-26T18:21:17Z</time>
      </trkpt>
      <trkpt lat="46.50351" lon="-1.81427">
        <ele>6</ele>
        <time>2024-02-26T18:21:21Z</time>
      </trkpt>
      <trkpt lat="46.50349" lon="-1.81429">
        <ele>6</ele>
        <time>2024-02-26T18:21:24Z</time>
      </trkpt>
      <trkpt lat="46.50339" lon="-1.81432">
        <ele>6</ele>
        <time>2024-02-26T18:21:38Z</time>
      </trkpt>
      <trkpt lat="46.50324" lon="-1.81435">
        <ele>6</ele>
        <time>2024-02-26T18:21:58Z</time>
      </trkpt>
      <trkpt lat="46.50296" lon="-1.81436">
        <ele>5</ele>
        <time>2024-02-26T18:22:35Z</time>
      </trkpt>
      <trkpt lat="46.50286" lon="-1.81435">
        <ele>5</ele>
        <time>2024-02-26T18:22:49Z</time>
      </trkpt>
      <trkpt lat="46.50271" lon="-1.81421">
        <ele>5</ele>
        <time>2024-02-26T18:23:12Z</time>
      </trkpt>
      <trkpt lat="46.50258" lon="-1.81417">
        <ele>5</ele>
        <time>2024-02-26T18:23:30Z</time>
      </trkpt>
      <trkpt lat="46.50222" lon="-1.81429">
        <ele>5</ele>
        <time>2024-02-26T18:24:19Z</time>
      </trkpt>
      <trkpt lat="46.50196" lon="-1.81441">
        <ele>5</ele>
        <time>2024-02-26T18:24:56Z</time>
      </trkpt>
      <trkpt lat="46.50167" lon="-1.81445">
        <ele>5</ele>
        <time>2024-02-26T18:25:35Z</time>
      </trkpt>
      <trkpt lat="46.50148" lon="-1.81454">
        <ele>4</ele>
        <time>2024-02-26T18:26:01Z</time>
      </trkpt>
      <trkpt lat="46.50128" lon="-1.81456">
        <ele>4</ele>
        <time>2024-02-26T18:26:28Z</time>
      </trkpt>
      <trkpt lat="46.50091" lon="-1.8145">
        <ele>4</ele>
        <time>2024-02-26T18:27:18Z</time>
      </trkpt>
      <trkpt lat="46.50061" lon="-1.8144">
        <ele>4</ele>
        <time>2024-02-26T18:27:59Z</time>
      </trkpt>
      <trkpt lat="46.5005" lon="-1.8144">
        <ele>4</ele>
        <time>2024-02-26T18:28:14Z</time>
      </trkpt>
      <trkpt lat="46.50028" lon="-1.81418">
        <ele>5</ele>
        <time>2024-02-26T18:28:49Z</time>
      </trkpt>
      <trkpt lat="46.50024" lon="-1.81418">
        <ele>5</ele>
        <time>2024-02-26T18:28:55Z</time>
      </trkpt>
      <trkpt lat="46.50022" lon="-1.81421">
        <ele>5</ele>
        <time>2024-02-26T18:28:58Z</time>
      </trkpt>
      <trkpt lat="46.50019" lon="-1.81418">
        <ele>5</ele>
        <time>2024-02-26T18:29:03Z</time>
      </trkpt>
      <trkpt lat="46.50019" lon="-1.81421">
        <ele>5</ele>
        <time>2024-02-26T18:29:06Z</time>
      </trkpt>
      <trkpt lat="46.50016" lon="-1.81422">
        <ele>5</ele>
        <time>2024-02-26T18:29:10Z</time>
      </trkpt>
      <trkpt lat="46.50007" lon="-1.8142">
        <ele>5</ele>
        <time>2024-02-26T18:29:22Z</time>
      </trkpt>
      <trkpt lat="46.49982" lon="-1.81438">
        <ele>4</ele>
        <time>2024-02-26T18:29:59Z</time>
      </trkpt>
      <trkpt lat="46.49966" lon="-1.81465">
        <ele>3</ele>
        <time>2024-02-26T18:30:32Z</time>
      </trkpt>
      <trkpt lat="46.49962" lon="-1.81481">
        <ele>3</ele>
        <time>2024-02-26T18:30:48Z</time>
      </trkpt>
      <trkpt lat="46.49947" lon="-1.81493">
        <ele>2</ele>
        <time>2024-02-26T18:31:11Z</time>
      </trkpt>
      <trkpt lat="46.49944" lon="-1.81493">
        <ele>2</ele>
        <time>2024-02-26T18:31:15Z</time>
      </trkpt>
      <trkpt lat="46.49936" lon="-1.81489">
        <ele>2</ele>
        <time>2024-02-26T18:31:26Z</time>
      </trkpt>
      <trkpt lat="46.49922" lon="-1.8149">
        <ele>2</ele>
        <time>2024-02-26T18:31:45Z</time>
      </trkpt>
      <trkpt lat="46.49917" lon="-1.81484">
        <ele>2</ele>
        <time>2024-02-26T18:31:53Z</time>
      </trkpt>
      <trkpt lat="46.49909" lon="-1.81485">
        <ele>2</ele>
        <time>2024-02-26T18:32:04Z</time>
      </trkpt>
      <trkpt lat="46.49894" lon="-1.81476">
        <ele>2</ele>
        <time>2024-02-26T18:32:26Z</time>
      </trkpt>
      <trkpt lat="46.49876" lon="-1.81474">
        <ele>2</ele>
        <time>2024-02-26T18:32:50Z</time>
      </trkpt>
      <trkpt lat="46.49857" lon="-1.81463">
        <ele>2</ele>
        <time>2024-02-26T18:33:17Z</time>
      </trkpt>
      <trkpt lat="46.49842" lon="-1.81462">
        <ele>2</ele>
        <time>2024-02-26T18:33:37Z</time>
      </trkpt>
      <trkpt lat="46.49788" lon="-1.81433">
        <ele>3</ele>
        <time>2024-02-26T18:34:54Z</time>
      </trkpt>
      <trkpt lat="46.4977" lon="-1.81432">
        <ele>3</ele>
        <time>2024-02-26T18:35:18Z</time>
      </trkpt>
      <trkpt lat="46.49751" lon="-1.81422">
        <ele>3</ele>
        <time>2024-02-26T18:35:45Z</time>
      </trkpt>
      <trkpt lat="46.49733" lon="-1.81419">
        <ele>3</ele>
        <time>2024-02-26T18:36:09Z</time>
      </trkpt>
      <trkpt lat="46.49707" lon="-1.81405">
        <ele>3</ele>
        <time>2024-02-26T18:36:46Z</time>
      </trkpt>
      <trkpt lat="46.49688" lon="-1.81398">
        <ele>3</ele>
        <time>2024-02-26T18:37:12Z</time>
      </trkpt>
      <trkpt lat="46.49682" lon="-1.8139">
        <ele>3</ele>
        <time>2024-02-26T18:37:23Z</time>
      </trkpt>
      <trkpt lat="46.49679" lon="-1.8138">
        <ele>4</ele>
        <time>2024-02-26T18:37:33Z</time>
      </trkpt>
      <trkpt lat="46.49681" lon="-1.8135">
        <ele>5</ele>
        <time>2024-02-26T18:38:01Z</time>
      </trkpt>
      <trkpt lat="46.49672" lon="-1.81336">
        <ele>6</ele>
        <time>2024-02-26T18:38:18Z</time>
      </trkpt>
      <trkpt lat="46.49633" lon="-1.81324">
        <ele>6</ele>
        <time>2024-02-26T18:39:12Z</time>
      </trkpt>
      <trkpt lat="46.49609" lon="-1.81314">
        <ele>7</ele>
        <time>2024-02-26T18:39:45Z</time>
      </trkpt>
      <trkpt lat="46.49567" lon="-1.81286">
        <ele>7</ele>
        <time>2024-02-26T18:40:47Z</time>
      </trkpt>
      <trkpt lat="46.49546" lon="-1.81267">
        <ele>7</ele>
        <time>2024-02-26T18:41:20Z</time>
      </trkpt>
      <trkpt lat="46.49537" lon="-1.81263">
        <ele>7</ele>
        <time>2024-02-26T18:41:32Z</time>
      </trkpt>
      <trkpt lat="46.49512" lon="-1.81234">
        <ele>8</ele>
        <time>2024-02-26T18:42:15Z</time>
      </trkpt>
      <trkpt lat="46.49491" lon="-1.81214">
        <ele>8</ele>
        <time>2024-02-26T18:42:48Z</time>
      </trkpt>
      <trkpt lat="46.49479" lon="-1.81198">
        <ele>8</ele>
        <time>2024-02-26T18:43:10Z</time>
      </trkpt>
      <trkpt lat="46.49464" lon="-1.81187">
        <ele>8</ele>
        <time>2024-02-26T18:43:33Z</time>
      </trkpt>
      <trkpt lat="46.49455" lon="-1.81185">
        <ele>8</ele>
        <time>2024-02-26T18:43:45Z</time>
      </trkpt>
      <trkpt lat="46.49412" lon="-1.81147">
        <ele>8</ele>
        <time>2024-02-26T18:44:52Z</time>
      </trkpt>
      <trkpt lat="46.4941" lon="-1.81139">
        <ele>8</ele>
        <time>2024-02-26T18:45:00Z</time>
      </trkpt>
      <trkpt lat="46.49383" lon="-1.8111">
        <ele>8</ele>
        <time>2024-02-26T18:45:45Z</time>
      </trkpt>
      <trkpt lat="46.49374" lon="-1.81093">
        <ele>8</ele>
        <time>2024-02-26T18:46:04Z</time>
      </trkpt>
      <trkpt lat="46.49343" lon="-1.8106">
        <ele>7</ele>
        <time>2024-02-26T18:46:56Z</time>
      </trkpt>
      <trkpt lat="46.49338" lon="-1.81046">
        <ele>7</ele>
        <time>2024-02-26T18:47:10Z</time>
      </trkpt>
      <trkpt lat="46.49325" lon="-1.81027">
        <ele>7</ele>
        <time>2024-02-26T18:47:35Z</time>
      </trkpt>
      <trkpt lat="46.49301" lon="-1.81003">
        <ele>6</ele>
        <time>2024-02-26T18:48:13Z</time>
      </trkpt>
      <trkpt lat="46.49243" lon="-1.8093">
        <ele>5</ele>
        <time>2024-02-26T18:49:56Z</time>
      </trkpt>
      <trkpt lat="46.49233" lon="-1.80906">
        <ele>5</ele>
        <time>2024-02-26T18:50:22Z</time>
      </trkpt>
      <trkpt lat="46.4923" lon="-1.80885">
        <ele>5</ele>
        <time>2024-02-26T18:50:41Z</time>
      </trkpt>
      <trkpt lat="46.49215" lon="-1.80842">
        <ele>4</ele>
        <time>2024-02-26T18:51:26Z</time>
      </trkpt>
      <trkpt lat="46.49216" lon="-1.80825">
        <ele>5</ele>
        <time>2024-02-26T18:51:41Z</time>
      </trkpt>
      <trkpt lat="46.49224" lon="-1.80816">
        <ele>5</ele>
        <time>2024-02-26T18:51:55Z</time>
      </trkpt>
      <trkpt lat="46.49229" lon="-1.80794">
        <ele>6</ele>
        <time>2024-02-26T18:52:16Z</time>
      </trkpt>
      <trkpt lat="46.49227" lon="-1.80769">
        <ele>6</ele>
        <time>2024-02-26T18:52:39Z</time>
      </trkpt>
      <trkpt lat="46.4922" lon="-1.80735">
        <ele>6</ele>
        <time>2024-02-26T18:53:12Z</time>
      </trkpt>
      <trkpt lat="46.49224" lon="-1.80713">
        <ele>7</ele>
        <time>2024-02-26T18:53:33Z</time>
      </trkpt>
      <trkpt lat="46.49218" lon="-1.80698">
        <ele>7</ele>
        <time>2024-02-26T18:53:49Z</time>
      </trkpt>
      <trkpt lat="46.49188" lon="-1.80651">
        <ele>7</ele>
        <time>2024-02-26T18:54:48Z</time>
      </trkpt>
      <trkpt lat="46.49145" lon="-1.80602">
        <ele>7</ele>
        <time>2024-02-26T18:56:01Z</time>
      </trkpt>
      <trkpt lat="46.49144" lon="-1.80594">
        <ele>8</ele>
        <time>2024-02-26T18:56:08Z</time>
      </trkpt>
      <trkpt lat="46.49135" lon="-1.80572">
        <ele>8</ele>
        <time>2024-02-26T18:56:32Z</time>
      </trkpt>
      <trkpt lat="46.49118" lon="-1.80552">
        <ele>7</ele>
        <time>2024-02-26T18:57:01Z</time>
      </trkpt>
      <trkpt lat="46.4911" lon="-1.80536">
        <ele>8</ele>
        <time>2024-02-26T18:57:19Z</time>
      </trkpt>
      <trkpt lat="46.4909" lon="-1.80537">
        <ele>7</ele>
        <time>2024-02-26T18:57:46Z</time>
      </trkpt>
      <trkpt lat="46.49073" lon="-1.80515">
        <ele>7</ele>
        <time>2024-02-26T18:58:16Z</time>
      </trkpt>
      <trkpt lat="46.49061" lon="-1.80507">
        <ele>7</ele>
        <time>2024-02-26T18:58:34Z</time>
      </trkpt>
      <trkpt lat="46.49058" lon="-1.80498">
        <ele>8</ele>
        <time>2024-02-26T18:58:43Z</time>
      </trkpt>
      <trkpt lat="46.4905" lon="-1.80486">
        <ele>8</ele>
        <time>2024-02-26T18:58:58Z</time>
      </trkpt>
      <trkpt lat="46.49027" lon="-1.80468">
        <ele>7</ele>
        <time>2024-02-26T18:59:33Z</time>
      </trkpt>
      <trkpt lat="46.48992" lon="-1.80434">
        <ele>6</ele>
        <time>2024-02-26T19:00:29Z</time>
      </trkpt>
      <trkpt lat="46.48972" lon="-1.80408">
        <ele>6</ele>
        <time>2024-02-26T19:01:05Z</time>
      </trkpt>
      <trkpt lat="46.48948" lon="-1.80344">
        <ele>5</ele>
        <time>2024-02-26T19:02:12Z</time>
      </trkpt>
      <trkpt lat="46.48924" lon="-1.80234">
        <ele>7</ele>
        <time>2024-02-26T19:03:58Z</time>
      </trkpt>
      <trkpt lat="46.48928" lon="-1.80213">
        <ele>7</ele>
        <time>2024-02-26T19:04:18Z</time>
      </trkpt>
      <trkpt lat="46.48936" lon="-1.80199">
        <ele>8</ele>
        <time>2024-02-26T19:04:35Z</time>
      </trkpt>
      <trkpt lat="46.48943" lon="-1.80169">
        <ele>9</ele>
        <time>2024-02-26T19:05:04Z</time>
      </trkpt>
      <trkpt lat="46.48939" lon="-1.80142">
        <ele>9</ele>
        <time>2024-02-26T19:05:29Z</time>
      </trkpt>
      <trkpt lat="46.48925" lon="-1.80099">
        <ele>8</ele>
        <time>2024-02-26T19:06:13Z</time>
      </trkpt>
      <trkpt lat="46.4892" lon="-1.80046">
        <ele>9</ele>
        <time>2024-02-26T19:07:02Z</time>
      </trkpt>
      <trkpt lat="46.48913" lon="-1.80011">
        <ele>9</ele>
        <time>2024-02-26T19:07:36Z</time>
      </trkpt>
      <trkpt lat="46.48914" lon="-1.79947">
        <ele>6</ele>
        <time>2024-02-26T19:08:34Z</time>
      </trkpt>
      <trkpt lat="46.48919" lon="-1.79929">
        <ele>6</ele>
        <time>2024-02-26T19:08:52Z</time>
      </trkpt>
      <trkpt lat="46.48934" lon="-1.79899">
        <ele>6</ele>
        <time>2024-02-26T19:09:26Z</time>
      </trkpt>
      <trkpt lat="46.48937" lon="-1.79885">
        <ele>6</ele>
        <time>2024-02-26T19:09:40Z</time>
      </trkpt>
      <trkpt lat="46.48955" lon="-1.79843">
        <ele>8</ele>
        <time>2024-02-26T19:10:25Z</time>
      </trkpt>
      <trkpt lat="46.48966" lon="-1.79811">
        <ele>9</ele>
        <time>2024-02-26T19:10:58Z</time>
      </trkpt>
      <trkpt lat="46.48967" lon="-1.79802">
        <ele>9</ele>
        <time>2024-02-26T19:11:06Z</time>
      </trkpt>
      <trkpt lat="46.48962" lon="-1.79774">
        <ele>8</ele>
        <time>2024-02-26T19:11:33Z</time>
      </trkpt>
      <trkpt lat="46.48949" lon="-1.79743">
        <ele>7</ele>
        <time>2024-02-26T19:12:06Z</time>
      </trkpt>
      <trkpt lat="46.48934" lon="-1.79718">
        <ele>6</ele>
        <time>2024-02-26T19:12:37Z</time>
      </trkpt>
      <trkpt lat="46.48929" lon="-1.797">
        <ele>6</ele>
        <time>2024-02-26T19:12:55Z</time>
      </trkpt>
      <trkpt lat="46.48944" lon="-1.79673">
        <ele>8</ele>
        <time>2024-02-26T19:13:26Z</time>
      </trkpt>
      <trkpt lat="46.48958" lon="-1.7964">
        <ele>8</ele>
        <time>2024-02-26T19:14:02Z</time>
      </trkpt>
      <trkpt lat="46.48959" lon="-1.79627">
        <ele>8</ele>
        <time>2024-02-26T19:14:14Z</time>
      </trkpt>
      <trkpt lat="46.48963" lon="-1.79622">
        <ele>9</ele>
        <time>2024-02-26T19:14:21Z</time>
      </trkpt>
      <trkpt lat="46.49005" lon="-1.79596">
        <ele>12</ele>
        <time>2024-02-26T19:15:22Z</time>
      </trkpt>
      <trkpt lat="46.49011" lon="-1.79589">
        <ele>12</ele>
        <time>2024-02-26T19:15:32Z</time>
      </trkpt>
      <trkpt lat="46.49008" lon="-1.79561">
        <ele>11</ele>
        <time>2024-02-26T19:15:58Z</time>
      </trkpt>
      <trkpt lat="46.49003" lon="-1.79556">
        <ele>11</ele>
        <time>2024-02-26T19:16:06Z</time>
      </trkpt>
      <trkpt lat="46.49016" lon="-1.79512">
        <ele>10</ele>
        <time>2024-02-26T19:16:50Z</time>
      </trkpt>
      <trkpt lat="46.49016" lon="-1.79519">
        <ele>10</ele>
        <time>2024-02-26T19:16:57Z</time>
      </trkpt>
      <trkpt lat="46.49027" lon="-1.79468">
        <ele>7</ele>
        <time>2024-02-26T19:17:46Z</time>
      </trkpt>
      <trkpt lat="46.4904" lon="-1.79442">
        <ele>6</ele>
        <time>2024-02-26T19:18:16Z</time>
      </trkpt>
      <trkpt lat="46.49051" lon="-1.79427">
        <ele>5</ele>
        <time>2024-02-26T19:18:36Z</time>
      </trkpt>
      <trkpt lat="46.49056" lon="-1.79425">
        <ele>5</ele>
        <time>2024-02-26T19:18:43Z</time>
      </trkpt>
      <trkpt lat="46.49066" lon="-1.79428">
        <ele>5</ele>
        <time>2024-02-26T19:18:56Z</time>
      </trkpt>
      <trkpt lat="46.49079" lon="-1.7937">
        <ele>3</ele>
        <time>2024-02-26T19:19:52Z</time>
      </trkpt>
      <trkpt lat="46.49092" lon="-1.79385">
        <ele>3</ele>
        <time>2024-02-26T19:20:14Z</time>
      </trkpt>
      <trkpt lat="46.49102" lon="-1.79391">
        <ele>3</ele>
        <time>2024-02-26T19:20:29Z</time>
      </trkpt>
      <trkpt lat="46.49123" lon="-1.79411">
        <ele>3</ele>
        <time>2024-02-26T19:21:02Z</time>
      </trkpt>
      <trkpt lat="46.49211" lon="-1.79474">
        <ele>4</ele>
        <time>2024-02-26T19:23:13Z</time>
      </trkpt>
      <trkpt lat="46.49226" lon="-1.7948">
        <ele>5</ele>
        <time>2024-02-26T19:23:34Z</time>
      </trkpt>
      <trkpt lat="46.49242" lon="-1.7948">
        <ele>5</ele>
        <time>2024-02-26T19:23:55Z</time>
      </trkpt>
      <trkpt lat="46.493" lon="-1.79512">
        <ele>9</ele>
        <time>2024-02-26T19:25:18Z</time>
      </trkpt>
      <trkpt lat="46.49346" lon="-1.7952">
        <ele>10</ele>
        <time>2024-02-26T19:26:20Z</time>
      </trkpt>
      <trkpt lat="46.49364" lon="-1.79533">
        <ele>9</ele>
        <time>2024-02-26T19:26:47Z</time>
      </trkpt>
      <trkpt lat="46.49398" lon="-1.79552">
        <ele>7</ele>
        <time>2024-02-26T19:27:35Z</time>
      </trkpt>
      <trkpt lat="46.49476" lon="-1.79588">
        <ele>5</ele>
        <time>2024-02-26T19:29:25Z</time>
      </trkpt>
      <trkpt lat="46.49494" lon="-1.796">
        <ele>5</ele>
        <time>2024-02-26T19:29:51Z</time>
      </trkpt>
      <trkpt lat="46.49641" lon="-1.79629">
        <ele>4</ele>
        <time>2024-02-26T19:33:09Z</time>
      </trkpt>
      <trkpt lat="46.49663" lon="-1.79636">
        <ele>4</ele>
        <time>2024-02-26T19:33:39Z</time>
      </trkpt>
      <trkpt lat="46.49726" lon="-1.79668">
        <ele>6</ele>
        <time>2024-02-26T19:35:08Z</time>
      </trkpt>
      <trkpt lat="46.49746" lon="-1.7967">
        <ele>6</ele>
        <time>2024-02-26T19:35:35Z</time>
      </trkpt>
      <trkpt lat="46.49764" lon="-1.79667">
        <ele>6</ele>
        <time>2024-02-26T19:35:59Z</time>
      </trkpt>
      <trkpt lat="46.49783" lon="-1.79672">
        <ele>5</ele>
        <time>2024-02-26T19:36:25Z</time>
      </trkpt>
      <trkpt lat="46.49813" lon="-1.79671">
        <ele>5</ele>
        <time>2024-02-26T19:37:05Z</time>
      </trkpt>
      <trkpt lat="46.49822" lon="-1.79676">
        <ele>4</ele>
        <time>2024-02-26T19:37:18Z</time>
      </trkpt>
      <trkpt lat="46.49838" lon="-1.79678">
        <ele>4</ele>
        <time>2024-02-26T19:37:39Z</time>
      </trkpt>
      <trkpt lat="46.49853" lon="-1.79672">
        <ele>4</ele>
        <time>2024-02-26T19:38:00Z</time>
      </trkpt>
      <trkpt lat="46.4989" lon="-1.79675">
        <ele>4</ele>
        <time>2024-02-26T19:38:49Z</time>
      </trkpt>
      <trkpt lat="46.49912" lon="-1.79674">
        <ele>4</ele>
        <time>2024-02-26T19:39:19Z</time>
      </trkpt>
      <trkpt lat="46.4994" lon="-1.79649">
        <ele>4</ele>
        <time>2024-02-26T19:40:03Z</time>
      </trkpt>
      <trkpt lat="46.50008" lon="-1.79577">
        <ele>2</ele>
        <time>2024-02-26T19:41:55Z</time>
      </trkpt>
      <trkpt lat="46.50026" lon="-1.79553">
        <ele>2</ele>
        <time>2024-02-26T19:42:28Z</time>
      </trkpt>
      <trkpt lat="46.50039" lon="-1.7954">
        <ele>2</ele>
        <time>2024-02-26T19:42:49Z</time>
      </trkpt>
      <trkpt lat="46.50051" lon="-1.79534">
        <ele>2</ele>
        <time>2024-02-26T19:43:06Z</time>
      </trkpt>
      <trkpt lat="46.50062" lon="-1.79517">
        <ele>1</ele>
        <time>2024-02-26T19:43:27Z</time>
      </trkpt>
      <trkpt lat="46.50179" lon="-1.79597">
        <ele>4</ele>
        <time>2024-02-26T19:46:20Z</time>
      </trkpt>
      <trkpt lat="46.50228" lon="-1.7958">
        <ele>5</ele>
        <time>2024-02-26T19:47:27Z</time>
      </trkpt>
      <trkpt lat="46.50322" lon="-1.7933">
        <ele>3</ele>
        <time>2024-02-26T19:51:48Z</time>
      </trkpt>
      <trkpt lat="46.50335" lon="-1.79328">
        <ele>4</ele>
        <time>2024-02-26T19:52:06Z</time>
      </trkpt>
      <trkpt lat="46.50359" lon="-1.79351">
        <ele>4</ele>
        <time>2024-02-26T19:52:44Z</time>
      </trkpt>
      <trkpt lat="46.50376" lon="-1.79398">
        <ele>5</ele>
        <time>2024-02-26T19:53:33Z</time>
      </trkpt>
      <trkpt lat="46.50404" lon="-1.79416">
        <ele>5</ele>
        <time>2024-02-26T19:54:14Z</time>
      </trkpt>
      <trkpt lat="46.50425" lon="-1.79433">
        <ele>4</ele>
        <time>2024-02-26T19:54:46Z</time>
      </trkpt>
      <trkpt lat="46.50439" lon="-1.79415">
        <ele>4</ele>
        <time>2024-02-26T19:55:11Z</time>
      </trkpt>
      <trkpt lat="46.5046" lon="-1.79405">
        <ele>2</ele>
        <time>2024-02-26T19:55:40Z</time>
      </trkpt>
      <trkpt lat="46.50556" lon="-1.79506">
        <ele>2.4</ele>
        <time>2024-02-26T19:58:19Z</time>
      </trkpt>
      <trkpt lat="46.50587" lon="-1.79534">
        <ele>-1</ele>
        <time>2024-02-26T19:59:07Z</time>
      </trkpt>
      <trkpt lat="46.5058" lon="-1.79579">
        <ele>4</ele>
        <time>2024-02-26T19:59:50Z</time>
      </trkpt>
      <trkpt lat="46.50576" lon="-1.79642">
        <ele>1</ele>
        <time>2024-02-26T20:00:48Z</time>
      </trkpt>
      <trkpt lat="46.50577" lon="-1.79702">
        <ele>2</ele>
        <time>2024-02-26T20:01:43Z</time>
      </trkpt>
      <trkpt lat="46.50582" lon="-1.79739">
        <ele>2</ele>
        <time>2024-02-26T20:02:18Z</time>
      </trkpt>
      <trkpt lat="46.50594" lon="-1.7966">
        <ele>4</ele>
      </trkpt>
      <trkpt lat="46.50593" lon="-1.79652">
        <ele>4</ele>
      </trkpt>
      <trkpt lat="46.50568" lon="-1.79612">
        <ele>4</ele>
      </trkpt>
      <trkpt lat="46.50548" lon="-1.79572">
        <ele>4.5</ele>
      </trkpt>
      <trkpt lat="46.50532" lon="-1.79565">
        <ele>4.6</ele>
      </trkpt>
      <trkpt lat="46.50512" lon="-1.79569">
        <ele>4.8</ele>
      </trkpt>
      <trkpt lat="46.50512" lon="-1.79563">
        <ele>4.9</ele>
      </trkpt>
      <trkpt lat="46.50507" lon="-1.79555">
        <ele>5</ele>
      </trkpt>
      <trkpt lat="46.50497" lon="-1.79537">
        <ele>4.3</ele>
      </trkpt>
      <trkpt lat="46.50487" lon="-1.7952">
        <ele>4</ele>
      </trkpt>
      <trkpt lat="46.50477" lon="-1.79502">
        <ele>4</ele>
      </trkpt>
      <trkpt lat="46.50467" lon="-1.79484">
        <ele>4</ele>
      </trkpt>
      <trkpt lat="46.5046" lon="-1.7947">
        <ele>4</ele>
      </trkpt>
      <trkpt lat="46.5045" lon="-1.79456">
        <ele>4</ele>
      </trkpt>
      <trkpt lat="46.50445" lon="-1.79447">
        <ele>4</ele>
      </trkpt>
      <trkpt lat="46.50437" lon="-1.79439">
        <ele>4.5</ele>
      </trkpt>
      <trkpt lat="46.50424" lon="-1.79431">
        <ele>5.5</ele>
      </trkpt>
      <trkpt lat="46.50407" lon="-1.79418">
        <ele>5</ele>
      </trkpt>
      <trkpt lat="46.50394" lon="-1.79408">
        <ele>3.8</ele>
      </trkpt>
      <trkpt lat="46.5038" lon="-1.79398">
        <ele>4.1</ele>
      </trkpt>
      <trkpt lat="46.50376" lon="-1.79393">
        <ele>4.4</ele>
      </trkpt>
      <trkpt lat="46.50367" lon="-1.79368">
        <ele>4.2</ele>
      </trkpt>
      <trkpt lat="46.50362" lon="-1.79354">
        <ele>4</ele>
      </trkpt>
      <trkpt lat="46.50345" lon="-1.79336">
        <ele>4.6</ele>
      </trkpt>
      <trkpt lat="46.50332" lon="-1.79324">
        <ele>4.5</ele>
      </trkpt>
      <trkpt lat="46.5033" lon="-1.79325">
        <ele>4.3</ele>
        <extensions>
          <visugpx:TrkExtension xmlns:visugpx="https://www.visugpx.com/editgpx/">
            <visugpx:node>3</visugpx:node>
            </visugpx:TrkExtension>
        </extensions>
      </trkpt>
    </trkseg>
  </trk>
</gpx>